METAR Data
IDs: Format: Raw Decoded Include TAF

Data at: 0858 UTC 23 Jul 2019

VTUK 230800Z 24005KT 150V290 9000 BKN030 BKN100 35/24 Q1004 NOSIG
VTUK 230700Z 24003KT 150V310 9000 SCT030 BKN100 35/23 Q1004 NOSIG
VTUK 230600Z 19004KT 100V270 9000 SCT030 BKN100 34/24 Q1005 NOSIG
VTUK 230500Z 24005KT 190V290 9000 SCT030 BKN100 34/24 Q1006 NOSIG
VTUK 230400Z 25006KT 190V330 9000 SCT030 BKN100 33/24 Q1007 NOSIG
VTUK 230300Z 24005KT 190V280 9000 SCT030 BKN100 31/25 Q1008 NOSIG
VTUK 230200Z 19004KT 140V270 9000 FEW030 BKN100 29/25 Q1008 NOSIG
VTUK 230100Z VRB03KT 9999 FEW035 BKN100 27/24 Q1007 NOSIG
VTUK 230000Z VRB03KT 9000 FEW035 BKN100 26/24 Q1007 NOSIG
VTUK 222300Z VRB03KT 9000 FEW030 BKN100 26/24 Q1007 NOSIG
VTUK 222200Z 19003KT 140V230 9000 FEW030 BKN100 26/24 Q1006 NOSIG
VTUK 222100Z VRB02KT 9000 FEW030 BKN100 26/24 Q1006 NOSIG
VTUK 222000Z VRB02KT 9000 FEW035 BKN100 26/24 Q1006 NOSIG
VTUK 221900Z VRB02KT 9000 FEW035 BKN100 26/24 Q1007 NOSIG
VTUK 221800Z VRB02KT 9000 FEW035 BKN100 27/24 Q1007 NOSIG
VTUK 221700Z 15004KT 110V190 9000 FEW035 BKN100 27/24 Q1008 NOSIG
VTUK 221600Z 32002KT 9000 FEW035 BKN100 28/22 Q1008 NOSIG
VTUK 221500Z 30003KT 9999 FEW035 BKN100 29/23 Q1007 NOSIG
VTUK 221400Z VRB01KT 9999 FEW035 BKN100 28/23 Q1007 NOSIG
VTUK 221300Z VRB02KT 9999 FEW030 BKN100 28/24 Q1006 NOSIG
VTUK 221200Z 24003KT 9999 FEW025 SCT040 BKN080 30/22 Q1006 NOSIG
VTUK 221100Z 24003KT 210V270 9999 FEW025 SCT040 BKN080 31/23 Q1005 NOSIG
VTUK 221000Z 26004KT 210V300 9999 FEW020 SCT040 BKN080 32/23 Q1005 NOSIG
VTUK 220900Z 29004KT 250V020 9999 FEW025 SCT040 BKN080 32/23 Q1005 NOSIG
VTUK 220800Z 30006KT 230V010 9999 FEW025 SCT040 BKN080 32/24 Q1006 NOSIG
VTUK 220700Z 27006KT 230V300 9999 FEW025 SCT060 BKN080 32/23 Q1006 NOSIG
VTUK 220600Z 26006KT 190V300 9999 FEW025 SCT060 BKN080 32/23 Q1008 NOSIG
VTUK 220500Z 24006KT 190V260 9999 FEW015 BKN030 BKN100 32/24 Q1008 NOSIG
VTUK 220400Z 22004KT 160V290 9999 SCT030 BKN100 32/25 Q1008 NOSIG
VTUK 220300Z 24005KT 190V280 9999 SCT030 BKN100 30/25 Q1008 NOSIG
VTUK 220200Z 24005KT 190V260 9999 SCT030 BKN100 29/25 Q1008 NOSIG
VTUK 220100Z 20003KT 130V270 9999 SCT030 BKN100 28/25 Q1008 NOSIG
VTUK 220000Z VRB02KT 9000 SCT030 BKN100 26/25 Q1008 NOSIG
VTUK 212300Z VRB02KT 9000 SCT030 BKN100 26/25 Q1007 NOSIG
VTUK 212200Z VRB01KT 9000 SCT030 25/24 Q1007 NOSIG
VTUK 212100Z VRB02KT 9000 SCT030 26/24 Q1006 NOSIG

VTUD 230800Z 32007KT 290V360 9999 FEW033 32/24 Q1004 NOSIG
VTUD 230700Z 31008KT 290V350 9999 FEW042 32/23 Q1005 NOSIG
VTUD 230600Z VRB06KT 9999 FEW030 33/23 Q1005 NOSIG
VTUD 230500Z 24005KT 190V340 9999 FEW030 33/23 Q1006 NOSIG
VTUD 230400Z 23005KT 200V310 9999 FEW030 SCT100 32/22 Q1007 NOSIG
VTUD 230300Z 21005KT 180V250 CAVOK 30/23 Q1007 NOSIG
VTUD 230200Z 22005KT CAVOK 29/23 Q1008 NOSIG
VTUD 230100Z 28003KT 230V330 9999 FEW035 SCT100 29/23 Q1007 NOSIG
VTUD 230000Z VRB02KT 9999 FEW032 27/25 Q1007 NOSIG
VTUD 222300Z 03002KT 9999 -RA FEW030 27/26 Q1006 NOSIG
VTUD 222200Z VRB02KT CAVOK 27/26 Q1006 NOSIG
VTUD 221500Z 17003KT 130V220 CAVOK 29/23 Q1007 NOSIG
VTUD 221400Z 17003KT 140V200 CAVOK 29/24 Q1006 NOSIG
VTUD 221300Z 13003KT CAVOK 29/25 Q1006 NOSIG
VTUD 221200Z 14004KT 9999 FEW030 SCT100 30/24 Q1005 NOSIG
VTUD 221100Z 14004KT 9999 FEW030 SCT100 30/24 Q1004 NOSIG
VTUD 221000Z 11004KT 9999 FEW030 SCT100 31/24 Q1004 NOSIG
VTUD 220900Z 33006KT 300V360 9999 FEW020 SCT100 31/23 Q1005 NOSIG
VTUD 220800Z 23010KT 200V270 9999 FEW018TCU SCT030 33/23 Q1005 NOSIG
VTUD 220700Z 24007KT 210V270 9999 FEW010 FEW018TCU SCT030 SCT100 32/23 Q1006 NOSIG
VTUD 220600Z 23006KT 200V260 9999 BKN025 32/24 Q1007 NOSIG
VTUD 220500Z 25007KT 220V290 9999 SCT020 31/24 Q1008 NOSIG
VTUD 220400Z 23004KT 160V310 9999 FEW015 31/24 Q1008 NOSIG
VTUD 220300Z VRB03KT CAVOK 30/24 Q1008 NOSIG
VTUD 220200Z 15006KT CAVOK 29/25 Q1008 NOSIG
VTUD 220100Z 16004KT CAVOK 27/25 Q1008 NOSIG
VTUD 220000Z 17003KT 150V230 CAVOK 26/25 Q1008 NOSIG
VTUD 212300Z VRB02KT CAVOK 25/25 Q1007 NOSIG
VTUD 212200Z 18003KT CAVOK 25/25 Q1007 NOSIG

VTUL 230800Z VRB04KT 9999 SCT030 BKN080 32/24 Q1004 NOSIG
VTUL 230700Z 18006KT 150V210 9999 SCT030 BKN080 32/24 Q1005 NOSIG
VTUL 230600Z 17004KT 080V230 9999 SCT030 BKN080 32/24 Q1006 NOSIG
VTUL 230500Z 14003KT 090V240 9999 SCT030 BKN080 31/23 Q1007 NOSIG
VTUL 230400Z VRB01KT 9999 SCT030 BKN080 31/25 Q1007 NOSIG
VTUL 230300Z VRB01KT 9999 FEW030 BKN080 29/24 Q1008 NOSIG
VTUL 230200Z 09004KT 040V150 9999 SCT030 BKN080 28/24 Q1008 NOSIG
VTUL 230100Z 19003KT 150V210 9999 SCT030 BKN080 27/24 Q1008 NOSIG
VTUL 230000Z 29003KT 270V330 9999 SCT030 BKN080 25/24 Q1008 NOSIG
VTUL 222300Z VRB01KT 9999 SCT030 BKN080 24/23 Q1007 NOSIG
VTUL 221200Z VRB02KT 9999 SCT030 BKN080 30/23 Q1006 NOSIG
VTUL 221100Z 29007KT 9999 SCT030 BKN080 32/21 Q1005 NOSIG
VTUL 221000Z VRB08KT 9999 SCT030 BKN080 33/22 Q1005 NOSIG
VTUL 220900Z 29007KT 260V330 9999 BKN030 BKN080 32/22 Q1005 NOSIG
VTUL 220800Z 26008KT 230V290 9999 BKN030 BKN080 33/23 Q1006 NOSIG
VTUL 220700Z 21009KT 170V260 9999 BKN030 BKN080 32/23 Q1007 NOSIG
VTUL 220600Z VRB04KT 9999 BKN030 BKN080 32/24 Q1008 NOSIG
VTUL 220500Z 17005KT 130V210 9999 BKN030 BKN080 31/24 Q1008 NOSIG
VTUL 220400Z 16005KT 080V200 9999 BKN030 BKN080 30/24 Q1009 NOSIG
VTUL 220300Z 13003KT 060V220 9999 SCT030 BKN080 29/25 Q1009 NOSIG
VTUL 220200Z 15003KT 080V220 9999 SCT030 BKN080 27/25 Q1009 NOSIG
VTUL 220100Z 00000KT 9999 SCT030 BKN080 26/25 Q1008 NOSIG
VTUL 220000Z 00000KT 9999 SCT030 BKN080 24/24 Q1008 NOSIG
VTUL 212300Z VRB01KT 9999 BKN030 24/24 Q1008 NOSIG

VTUI 230800Z 08005KT 040V130 9000 -RA FEW025CB SCT030 BKN100 30/27 Q1003 NOSIG
VTUI 230700Z 10005KT 050V130 9999 SCT030 SCT100 31/26 Q1004 NOSIG
VTUI 230600Z 11004KT 050V180 9999 SCT030 BKN100 30/26 Q1005 NOSIG
VTUI 230500Z 10004KT 040V140 9999 FEW020 BKN100 30/26 Q1006 NOSIG
VTUI 230400Z VRB02KT 9999 FEW020 BKN100 29/25 Q1007 NOSIG
VTUI 230300Z 22005KT 190V260 9999 FEW040 BKN100 28/25 Q1007 NOSIG
VTUI 230200Z VRB02KT 9999 -RA FEW030TCU SCT040 SCT100 27/25 Q1008 NOSIG
VTUI 230100Z 12003KT 060V230 9999 FEW030 26/25 Q1007 NOSIG
VTUI 230000Z 15003KT 110V200 9999 FEW030 26/24 Q1007 NOSIG
VTUI 222300Z VRB02KT 9999 FEW030 BKN100 25/25 Q1006 NOSIG
VTUI 222200Z 00000KT 9999 FEW040 SCT100 25/25 Q1006 NOSIG
VTUI 221500Z 19003KT 9999 FEW040 BKN100 25/24 Q1007 NOSIG
VTUI 221400Z 20003KT 170V230 9999 FEW040 BKN100 25/24 Q1007 NOSIG
VTUI 221300Z 19004KT 160V220 9999 FEW040 SCT100 24/24 Q1006 NOSIG
VTUI 221200Z 18004KT 9999 -RA FEW040 BKN100 24/24 Q1006 NOSIG
VTUI 221100Z 19005KT 160V220 9999 -RA FEW020 BKN080 24/24 Q1005 RETS NOSIG
VTUI 221000Z VRB06KT 9999 -TSRA FEW010 FEW020CB BKN060 24/23 Q1005 NOSIG
VTUI 220900Z VRB06KT 9999 TS VCSH FEW005 FEW020CB BKN040 25/24 Q1007 TEMPO TL1000 34015G25KT 1500 +TSRA
VTUI 220800Z 14004KT 9999 VCSH FEW020CB BKN060 27/27 Q1006 RETS TEMPO TL1000 5000 TSRA
VTUI 220700Z 17004KT 120V260 7000 -TSRA FEW010 FEW020CB BKN040 27/24 Q1006 NOSIG
VTUI 220600Z 14005KT 110V170 9999 TS FEW005 FEW020CB BKN030 27/26 Q1006 NOSIG
VTUI 220500Z 08005KT 060V130 9999 TS VCSH FEW005 FEW020CB BKN030 28/26 Q1007 NOSIG
VTUI 220400Z 23004KT 200V270 9999 FEW020TCU SCT025 BKN100 30/25 Q1007 NOSIG
VTUI 220300Z 19006KT 130V230 9999 SCT020 SCT100 30/25 Q1008 NOSIG
VTUI 220200Z 20008KT 9999 FEW025 BKN100 29/25 Q1008 NOSIG
VTUI 220100Z 20006KT 150V230 9999 FEW025 SCT100 28/25 Q1008 NOSIG
VTUI 220000Z 19004KT 9999 FEW025 SCT100 26/26 Q1007 NOSIG
VTUI 212300Z VRB01KT 9999 FEW025 BKN100 26/25 Q1007 NOSIG
VTUI 212200Z VRB02KT 9000 FEW025 BKN100 26/25 Q1007 NOSIG

VTUW 230800Z VRB03KT 9999 SCT025 BKN100 30/26 Q1004 NOSIG
VTUW 230700Z 20003KT 140V250 9999 SCT025 BKN100 30/26 Q1005 NOSIG
VTUW 230600Z VRB02KT 9999 SCT020 BKN100 30/26 Q1006 NOSIG
VTUW 230500Z VRB02KT 9999 SCT020 BKN100 29/25 Q1007 NOSIG
VTUW 230400Z VRB01KT 9999 SCT015 BKN100 28/25 Q1007 NOSIG
VTUW 230300Z VRB03KT 9000 SCT008 BKN100 27/25 Q1008 NOSIG
VTUW 230200Z 12004KT 100V160 8000 SCT007 BKN100 26/25 Q1008 NOSIG
VTUW 230100Z 13005KT 100V170 7000 SCT006 BKN040 25/25 Q1008 NOSIG
VTUW 221300Z VRB02KT 9000 FEW045 BKN100 24/24 Q1006 NOSIG
VTUW 221200Z 08003KT 8000 -RA FEW025 SCT045 BKN100 24/24 Q1006 RERA NOSIG
VTUW 221100Z 24004KT 210V290 5000 RA BR FEW020 SCT045 BKN090 24/24 Q1006 RETS NOSIG
VTUW 221000Z 29008G23KT 240V340 1500 +TSRA BR SCT007 SCT018CB OVC030 24/24 Q1006 BECMG TL1030 3000 TSRA BR
VTUW 220900Z 05005KT 020V090 6000 -TSRA BR FEW005 FEW018CB BKN045 25/25 Q1006 RERA TEMPO FM0940 TL1010 5000 TSRA
VTUW 220800Z 18005KT 130V220 3000 TSRA BR SCT005 SCT018CB OVC035 25/25 Q1007 RERA BECMG TL0900 5000 TSRA BR
VTUW 220700Z 21007KT 170V250 7000 -TSRA FEW004 FEW018CB SCT025 BKN100 26/26 Q1007 RERA TEMPO FM0730 TL0800 5000 TSRA
VTUW 220600Z 09006KT 030V130 9999 5000SW TS VCSH FEW006 FEW018CB SCT025 BKN100 30/26 Q1007 TEMPO FM0630 TL0700 5000 TSRA
VTUW 220500Z 07004KT 010V140 9000 -RA SCT010 29/26 Q1007 NOSIG
VTUW 220400Z VRB02KT 9000 SCT010 28/26 Q1008 NOSIG
VTUW 220300Z 16004KT 130V230 8000 SCT006 BKN045 27/26 Q1009 NOSIG
VTUW 220200Z 19005KT 150V220 6000 -RA SCT006 BKN040 26/26 Q1009 RETSRA NOSIG
VTUW 220100Z 19004KT 160V220 6000 SCT006 BKN035 26/26 Q1008 NOSIG